sensor_id;sensor_type;location;lat;lon;timestamp;pressure;altitude;pressure_sealevel;temperature;humidity
45247;BME280;31529;51.158;7.354;2023-06-19T00:00:10;97393.53;;;22.54;67.65
45247;BME280;31529;51.158;7.354;2023-06-19T00:00:46;97388.88;;;22.54;67.47
45247;BME280;31529;51.158;7.354;2023-06-19T00:01:17;97392.75;;;22.57;67.29
45247;BME280;31529;51.158;7.354;2023-06-19T00:01:49;97396.25;;;22.57;67.34
45247;BME280;31529;51.158;7.354;2023-06-19T00:02:20;97402.91;;;22.60;67.19
45247;BME280;31529;51.158;7.354;2023-06-19T00:02:51;97394.75;;;22.60;66.83
45247;BME280;31529;51.158;7.354;2023-06-19T00:03:22;97387.34;;;22.60;66.42
45247;BME280;31529;51.158;7.354;2023-06-19T00:03:53;97393.56;;;22.61;66.67
45247;BME280;31529;51.158;7.354;2023-06-19T00:04:24;97391.66;;;22.61;66.53
45247;BME280;31529;51.158;7.354;2023-06-19T00:04:57;97388.94;;;22.61;66.33
45247;BME280;31529;51.158;7.354;2023-06-19T00:05:28;97383.50;;;22.61;66.02
45247;BME280;31529;51.158;7.354;2023-06-19T00:05:59;97384.28;;;22.62;66.17
45247;BME280;31529;51.158;7.354;2023-06-19T00:06:30;97378.84;;;22.62;65.96
45247;BME280;31529;51.158;7.354;2023-06-19T00:07:03;97382.31;;;22.63;66.07
45247;BME280;31529;51.158;7.354;2023-06-19T00:07:35;97376.88;;;22.63;65.28
45247;BME280;31529;51.158;7.354;2023-06-19T00:08:07;97379.59;;;22.63;65.26
45247;BME280;31529;51.158;7.354;2023-06-19T00:08:38;97369.50;;;22.63;64.54
45247;BME280;31529;51.158;7.354;2023-06-19T00:09:12;97364.47;;;22.61;64.28
45247;BME280;31529;51.158;7.354;2023-06-19T00:09:43;97371.81;;;22.61;63.94
45247;BME280;31529;51.158;7.354;2023-06-19T00:10:15;97366.38;;;22.61;64.00
45247;BME280;31529;51.158;7.354;2023-06-19T00:10:47;97366.38;;;22.61;63.87
45247;BME280;31529;51.158;7.354;2023-06-19T00:11:19;97374.53;;;22.61;63.25
45247;BME280;31529;51.158;7.354;2023-06-19T00:11:49;97375.34;;;22.61;63.12
45247;BME280;31529;51.158;7.354;2023-06-19T00:12:21;97373.41;;;22.62;63.24
45247;BME280;31529;51.158;7.354;2023-06-19T00:12:52;97375.34;;;22.61;62.54
45247;BME280;31529;51.158;7.354;2023-06-19T00:13:23;97373.41;;;22.62;62.39
45247;BME280;31529;51.158;7.354;2023-06-19T00:13:54;97375.75;;;22.64;62.78
45247;BME280;31529;51.158;7.354;2023-06-19T00:14:26;97377.28;;;22.65;62.34
45247;BME280;31529;51.158;7.354;2023-06-19T00:14:57;97379.22;;;22.64;62.48
45247;BME280;31529;51.158;7.354;2023-06-19T00:15:28;97379.63;;;22.66;62.33
45247;BME280;31529;51.158;7.354;2023-06-19T00:16:00;97380.41;;;22.67;62.21
45247;BME280;31529;51.158;7.354;2023-06-19T00:16:31;97381.97;;;22.68;61.91
45247;BME280;31529;51.158;7.354;2023-06-19T00:17:03;97392.84;;;22.68;61.95
45247;BME280;31529;51.158;7.354;2023-06-19T00:17:34;97385.09;;;22.70;61.87
45247;BME280;31529;51.158;7.354;2023-06-19T00:18:07;97376.56;;;22.71;61.72
45247;BME280;31529;51.158;7.354;2023-06-19T00:18:39;97382.00;;;22.71;61.95
45247;BME280;31529;51.158;7.354;2023-06-19T00:19:12;97384.34;;;22.73;61.88
45247;BME280;31529;51.158;7.354;2023-06-19T00:19:44;97376.19;;;22.73;61.90
45247;BME280;31529;51.158;7.354;2023-06-19T00:20:15;97374.25;;;22.73;61.86
45247;BME280;31529;51.158;7.354;2023-06-19T00:20:46;97377.75;;;22.74;61.72
45247;BME280;31529;51.158;7.354;2023-06-19T00:21:17;97377.75;;;22.74;61.36
45247;BME280;31529;51.158;7.354;2023-06-19T00:21:49;97376.59;;;22.75;61.46
45247;BME280;31529;51.158;7.354;2023-06-19T00:22:20;97371.16;;;22.75;61.35
45247;BME280;31529;51.158;7.354;2023-06-19T00:22:51;97310.63;;;22.30;61.38
45247;BME280;31529;51.158;7.354;2023-06-19T00:23:23;97375.81;;;22.78;61.36
45247;BME280;31529;51.158;7.354;2023-06-19T00:23:54;97383.97;;;22.78;61.36
45247;BME280;31529;51.158;7.354;2023-06-19T00:24:25;97376.63;;;22.78;60.98
45247;BME280;31529;51.158;7.354;2023-06-19T00:24:57;97374.69;;;22.79;60.95
45247;BME280;31529;51.158;7.354;2023-06-19T00:25:28;97372.72;;;22.79;60.84
45247;BME280;31529;51.158;7.354;2023-06-19T00:25:59;97371.59;;;22.80;60.98
45247;BME280;31529;51.158;7.354;2023-06-19T00:26:31;97379.75;;;22.80;60.74
45247;BME280;31529;51.158;7.354;2023-06-19T00:27:03;97375.09;;;22.81;60.54
45247;BME280;31529;51.158;7.354;2023-06-19T00:27:34;97373.50;;;22.80;60.83
45247;BME280;31529;51.158;7.354;2023-06-19T00:28:05;97371.59;;;22.80;60.77
45247;BME280;31529;51.158;7.354;2023-06-19T00:28:43;97370.41;;;22.81;60.63
45247;BME280;31529;51.158;7.354;2023-06-19T00:29:16;97369.63;;;22.81;60.86
45247;BME280;31529;51.158;7.354;2023-06-19T00:29:47;97370.38;;;22.78;60.87
45247;BME280;31529;51.158;7.354;2023-06-19T00:30:18;97374.69;;;22.79;60.77
45247;BME280;31529;51.158;7.354;2023-06-19T00:30:49;97381.66;;;22.80;60.93
45247;BME280;31529;51.158;7.354;2023-06-19T00:31:20;97378.94;;;22.80;60.64
45247;BME280;31529;51.158;7.354;2023-06-19T00:31:51;97376.63;;;22.78;60.42
45247;BME280;31529;51.158;7.354;2023-06-19T00:32:22;97371.56;;;22.77;60.52
45247;BME280;31529;51.158;7.354;2023-06-19T00:32:53;97381.25;;;22.78;60.52
45247;BME280;31529;51.158;7.354;2023-06-19T00:33:24;97380.13;;;22.79;60.73
45247;BME280;31529;51.158;7.354;2023-06-19T00:33:55;97317.22;;;22.32;60.60
45247;BME280;31529;51.158;7.354;2023-06-19T00:34:28;97382.06;;;22.82;60.80
45247;BME280;31529;51.158;7.354;2023-06-19T00:35:00;97374.34;;;22.84;60.52
45247;BME280;31529;51.158;7.354;2023-06-19T00:35:31;97381.31;;;22.85;60.44
45247;BME280;31529;51.158;7.354;2023-06-19T00:36:02;97377.47;;;22.86;60.51
45247;BME280;31529;51.158;7.354;2023-06-19T00:36:40;97383.28;;;22.88;60.27
45247;BME280;31529;51.158;7.354;2023-06-19T00:37:11;97382.13;;;22.89;60.09
45247;BME280;31529;51.158;7.354;2023-06-19T00:37:44;97386.41;;;22.90;60.53
45247;BME280;31529;51.158;7.354;2023-06-19T00:38:15;97382.53;;;22.91;60.27
45247;BME280;31529;51.158;7.354;2023-06-19T00:38:47;97386.81;;;22.92;60.25
45247;BME280;31529;51.158;7.354;2023-06-19T00:39:18;97382.91;;;22.93;60.18
45247;BME280;31529;51.158;7.354;2023-06-19T00:39:49;97381.78;;;22.94;60.05
45247;BME280;31529;51.158;7.354;2023-06-19T00:40:28;97382.16;;;22.93;60.18
45247;BME280;31529;51.158;7.354;2023-06-19T00:41:00;97389.94;;;22.94;60.00
45247;BME280;31529;51.158;7.354;2023-06-19T00:41:31;97385.25;;;22.95;60.11
45247;BME280;31529;51.158;7.354;2023-06-19T00:42:03;97382.94;;;22.97;59.89
45247;BME280;31529;51.158;7.354;2023-06-19T00:42:34;97382.16;;;22.96;60.25
45247;BME280;31529;51.158;7.354;2023-06-19T00:43:06;97384.91;;;22.96;60.19
45247;BME280;31529;51.158;7.354;2023-06-19T00:43:39;97386.06;;;22.99;60.31
45247;BME280;31529;51.158;7.354;2023-06-19T00:44:10;97374.78;;;22.97;60.40
45247;BME280;31529;51.158;7.354;2023-06-19T00:44:41;97378.31;;;22.97;60.43
45247;BME280;31529;51.158;7.354;2023-06-19T00:45:12;97377.88;;;22.95;60.58
45247;BME280;31529;51.158;7.354;2023-06-19T00:45:43;97376.72;;;22.96;60.39
45247;BME280;31529;51.158;7.354;2023-06-19T00:46:14;97379.81;;;22.95;60.31
45247;BME280;31529;51.158;7.354;2023-06-19T00:46:45;97379.81;;;22.95;60.66
45247;BME280;31529;51.158;7.354;2023-06-19T00:47:17;97381.78;;;22.94;60.74
45247;BME280;31529;51.158;7.354;2023-06-19T00:47:48;97379.06;;;22.94;60.71
45247;BME280;31529;51.158;7.354;2023-06-19T00:48:19;97385.63;;;22.93;60.61
45247;BME280;31529;51.158;7.354;2023-06-19T00:48:50;97384.09;;;22.92;60.76
45247;BME280;31529;51.158;7.354;2023-06-19T00:49:21;97380.59;;;22.92;60.79
45247;BME280;31529;51.158;7.354;2023-06-19T00:49:52;97382.53;;;22.91;60.90
45247;BME280;31529;51.158;7.354;2023-06-19T00:50:24;97389.91;;;22.91;60.63
45247;BME280;31529;51.158;7.354;2023-06-19T00:50:55;97383.69;;;22.90;60.48
45247;BME280;31529;51.158;7.354;2023-06-19T00:51:27;97389.13;;;22.90;60.47
45247;BME280;31529;51.158;7.354;2023-06-19T00:51:58;97391.84;;;22.90;60.53
45247;BME280;31529;51.158;7.354;2023-06-19T00:52:30;97387.56;;;22.89;60.41
45247;BME280;31529;51.158;7.354;2023-06-19T00:53:01;97389.13;;;22.90;60.62
45247;BME280;31529;51.158;7.354;2023-06-19T00:53:34;97390.69;;;22.91;60.44
45247;BME280;31529;51.158;7.354;2023-06-19T00:54:06;97394.97;;;22.92;60.38
45247;BME280;31529;51.158;7.354;2023-06-19T00:54:37;97386.81;;;22.92;60.39
45247;BME280;31529;51.158;7.354;2023-06-19T00:55:08;97392.25;;;22.92;60.31
45247;BME280;31529;51.158;7.354;2023-06-19T00:55:40;97392.25;;;22.92;60.24
45247;BME280;31529;51.158;7.354;2023-06-19T00:56:11;97393.03;;;22.93;60.44
45247;BME280;31529;51.158;7.354;2023-06-19T00:56:43;97388.34;;;22.93;60.61
45247;BME280;31529;51.158;7.354;2023-06-19T00:57:14;97393.81;;;22.93;60.91
45247;BME280;31529;51.158;7.354;2023-06-19T00:57:45;97389.53;;;22.92;60.91
45247;BME280;31529;51.158;7.354;2023-06-19T00:58:17;97389.53;;;22.92;60.91
45247;BME280;31529;51.158;7.354;2023-06-19T00:58:50;97388.75;;;22.92;61.26
45247;BME280;31529;51.158;7.354;2023-06-19T00:59:23;97386.41;;;22.90;61.24
45247;BME280;31529;51.158;7.354;2023-06-19T00:59:54;97390.69;;;22.91;60.97
45247;BME280;31529;51.158;7.354;2023-06-19T01:00:26;97385.66;;;22.90;60.99
45247;BME280;31529;51.158;7.354;2023-06-19T01:00:57;97389.91;;;22.91;61.03
45247;BME280;31529;51.158;7.354;2023-06-19T01:01:28;97389.91;;;22.91;60.87
45247;BME280;31529;51.158;7.354;2023-06-19T01:01:59;97390.69;;;22.91;61.20
45247;BME280;31529;51.158;7.354;2023-06-19T01:02:31;97393.41;;;22.91;61.04
45247;BME280;31529;51.158;7.354;2023-06-19T01:03:02;97382.91;;;22.93;61.01
45247;BME280;31529;51.158;7.354;2023-06-19T01:03:33;97382.16;;;22.93;61.18
45247;BME280;31529;51.158;7.354;2023-06-19T01:04:04;97388.34;;;22.93;60.95
45247;BME280;31529;51.158;7.354;2023-06-19T01:04:35;97386.03;;;22.95;60.84
45247;BME280;31529;51.158;7.354;2023-06-19T01:05:06;97384.13;;;22.96;61.01
45247;BME280;31529;51.158;7.354;2023-06-19T01:05:38;97386.47;;;22.97;61.14
45247;BME280;31529;51.158;7.354;2023-06-19T01:06:10;97385.66;;;22.97;60.75
45247;BME280;31529;51.158;7.354;2023-06-19T01:06:48;97391.13;;;23.00;60.69
45247;BME280;31529;51.158;7.354;2023-06-19T01:07:36;97389.97;;;23.02;60.39
45247;BME280;31529;51.158;7.354;2023-06-19T01:09:11;97389.25;;;23.05;60.03
45247;BME280;31529;51.158;7.354;2023-06-19T01:09:58;97385.38;;;23.06;60.12
45247;BME280;31529;51.158;7.354;2023-06-19T01:10:43;97385.00;;;23.07;60.03
45247;BME280;31529;51.158;7.354;2023-06-19T01:11:19;97392.78;;;23.09;60.15
45247;BME280;31529;51.158;7.354;2023-06-19T01:11:55;97290.13;;;22.43;59.92
45247;BME280;31529;51.158;7.354;2023-06-19T01:12:33;97393.19;;;23.11;60.04
45247;BME280;31529;51.158;7.354;2023-06-19T01:13:10;97392.78;;;23.12;59.78
45247;BME280;31529;51.158;7.354;2023-06-19T01:13:52;97385.41;;;23.13;59.92
45247;BME280;31529;51.158;7.354;2023-06-19T01:14:33;97390.47;;;23.14;59.79
45247;BME280;31529;51.158;7.354;2023-06-19T01:15:08;97396.69;;;23.15;59.90
45247;BME280;31529;51.158;7.354;2023-06-19T01:15:40;97390.47;;;23.14;59.86
45247;BME280;31529;51.158;7.354;2023-06-19T01:16:12;97396.31;;;23.16;59.90
45247;BME280;31529;51.158;7.354;2023-06-19T01:16:44;97398.25;;;23.16;59.67
45247;BME280;31529;51.158;7.354;2023-06-19T01:17:16;97400.97;;;23.16;59.65
45247;BME280;31529;51.158;7.354;2023-06-19T01:17:47;97397.88;;;23.17;59.70
45247;BME280;31529;51.158;7.354;2023-06-19T01:18:19;97404.88;;;23.18;59.51
45247;BME280;31529;51.158;7.354;2023-06-19T01:18:51;97397.50;;;23.19;59.68
45247;BME280;31529;51.158;7.354;2023-06-19T01:19:23;97403.34;;;23.21;59.91
45247;BME280;31529;51.158;7.354;2023-06-19T01:19:57;97406.84;;;23.22;59.60
45247;BME280;31529;51.158;7.354;2023-06-19T01:20:28;97406.47;;;23.23;59.60
45247;BME280;31529;51.158;7.354;2023-06-19T01:21:15;97398.28;;;23.23;59.31
45247;BME280;31529;51.158;7.354;2023-06-19T01:21:47;97398.69;;;23.25;59.62
45247;BME280;31529;51.158;7.354;2023-06-19T01:22:32;97400.25;;;23.26;59.45
45247;BME280;31529;51.158;7.354;2023-06-19T01:23:07;97401.81;;;23.27;59.70
45247;BME280;31529;51.158;7.354;2023-06-19T01:23:39;97401.81;;;23.27;59.30
45247;BME280;31529;51.158;7.354;2023-06-19T01:24:11;97396.38;;;23.27;59.25
45247;BME280;31529;51.158;7.354;2023-06-19T01:24:42;97399.88;;;23.28;59.51
45247;BME280;31529;51.158;7.354;2023-06-19T01:25:13;97397.94;;;23.28;59.19
45247;BME280;31529;51.158;7.354;2023-06-19T01:25:44;97398.72;;;23.29;59.20
45247;BME280;31529;51.158;7.354;2023-06-19T01:26:16;97398.72;;;23.29;59.27
45247;BME280;31529;51.158;7.354;2023-06-19T01:26:48;97406.50;;;23.30;59.24
45247;BME280;31529;51.158;7.354;2023-06-19T01:27:20;97403.78;;;23.30;59.24
45247;BME280;31529;51.158;7.354;2023-06-19T01:27:52;97402.59;;;23.31;59.12
45247;BME280;31529;51.158;7.354;2023-06-19T01:28:23;97404.19;;;23.32;59.41
45247;BME280;31529;51.158;7.354;2023-06-19T01:28:57;97400.28;;;23.33;59.20
45247;BME280;31529;51.158;7.354;2023-06-19T01:29:28;97401.09;;;23.34;59.40
45247;BME280;31529;51.158;7.354;2023-06-19T01:29:59;97401.09;;;23.34;59.30
45247;BME280;31529;51.158;7.354;2023-06-19T01:30:33;97399.13;;;23.34;59.69
45247;BME280;31529;51.158;7.354;2023-06-19T01:31:06;97393.69;;;23.34;59.34
45247;BME280;31529;51.158;7.354;2023-06-19T01:32:22;97397.97;;;23.35;59.22
45247;BME280;31529;51.158;7.354;2023-06-19T01:33:06;97398.75;;;23.36;59.37
45247;BME280;31529;51.158;7.354;2023-06-19T01:33:42;97395.25;;;23.35;59.53
45247;BME280;31529;51.158;7.354;2023-06-19T01:34:15;97400.72;;;23.35;59.77
45247;BME280;31529;51.158;7.354;2023-06-19T01:34:50;97397.19;;;23.35;59.17
45247;BME280;31529;51.158;7.354;2023-06-19T01:35:28;97396.41;;;23.34;59.11
45247;BME280;31529;51.158;7.354;2023-06-19T01:36:03;97390.97;;;23.34;59.09
45247;BME280;31529;51.158;7.354;2023-06-19T01:36:35;97397.19;;;23.35;59.10
45247;BME280;31529;51.158;7.354;2023-06-19T01:37:07;97389.81;;;23.35;59.20
45247;BME280;31529;51.158;7.354;2023-06-19T01:37:41;97396.81;;;23.36;59.14
45247;BME280;31529;51.158;7.354;2023-06-19T01:38:13;97395.66;;;23.37;59.28
45247;BME280;31529;51.158;7.354;2023-06-19T01:38:46;97397.19;;;23.38;59.46
45247;BME280;31529;51.158;7.354;2023-06-19T01:39:19;97390.59;;;23.39;59.29
45247;BME280;31529;51.158;7.354;2023-06-19T01:39:51;97392.53;;;23.39;59.24
45247;BME280;31529;51.158;7.354;2023-06-19T01:40:23;97390.97;;;23.38;59.21
45247;BME280;31529;51.158;7.354;2023-06-19T01:40:58;97397.19;;;23.38;58.86
45247;BME280;31529;51.158;7.354;2023-06-19T01:41:31;97394.47;;;23.38;58.77
45247;BME280;31529;51.158;7.354;2023-06-19T01:42:04;97391.75;;;23.38;58.72
45247;BME280;31529;51.158;7.354;2023-06-19T01:42:39;97395.25;;;23.39;58.57
45247;BME280;31529;51.158;7.354;2023-06-19T01:43:11;97393.31;;;23.39;58.63
45247;BME280;31529;51.158;7.354;2023-06-19T01:43:43;97388.25;;;23.38;58.26
45247;BME280;31529;51.158;7.354;2023-06-19T01:44:16;97386.31;;;23.38;58.26
45247;BME280;31529;51.158;7.354;2023-06-19T01:44:47;97387.50;;;23.37;58.33
45247;BME280;31529;51.158;7.354;2023-06-19T01:45:19;97386.31;;;23.38;58.05
45247;BME280;31529;51.158;7.354;2023-06-19T01:45:50;97389.81;;;23.39;58.14
45247;BME280;31529;51.158;7.354;2023-06-19T01:46:22;97382.44;;;23.39;57.78
45247;BME280;31529;51.158;7.354;2023-06-19T01:46:53;97394.09;;;23.40;57.68
45247;BME280;31529;51.158;7.354;2023-06-19T01:47:24;97387.09;;;23.39;57.95
45247;BME280;31529;51.158;7.354;2023-06-19T01:47:55;97383.22;;;23.40;57.63
45247;BME280;31529;51.158;7.354;2023-06-19T01:48:27;97386.72;;;23.41;57.31
45247;BME280;31529;51.158;7.354;2023-06-19T01:48:58;97389.44;;;23.41;57.31
45247;BME280;31529;51.158;7.354;2023-06-19T01:49:29;97391.00;;;23.42;57.03
45247;BME280;31529;51.158;7.354;2023-06-19T01:50:01;97390.22;;;23.41;56.90
45247;BME280;31529;51.158;7.354;2023-06-19T01:50:32;97384.78;;;23.41;57.12
45247;BME280;31529;51.158;7.354;2023-06-19T01:51:04;97387.50;;;23.41;57.02
45247;BME280;31529;51.158;7.354;2023-06-19T01:51:35;97390.63;;;23.43;56.96
45247;BME280;31529;51.158;7.354;2023-06-19T01:52:06;97391.41;;;23.44;56.93
45247;BME280;31529;51.158;7.354;2023-06-19T01:52:38;97387.91;;;23.43;56.82
45247;BME280;31529;51.158;7.354;2023-06-19T01:53:09;97394.13;;;23.44;56.56
45247;BME280;31529;51.158;7.354;2023-06-19T01:53:40;97385.94;;;23.44;56.51
45247;BME280;31529;51.158;7.354;2023-06-19T01:54:11;97382.47;;;23.43;56.43
45247;BME280;31529;51.158;7.354;2023-06-19T01:54:42;97388.69;;;23.44;56.41
45247;BME280;31529;51.158;7.354;2023-06-19T01:55:14;97393.75;;;23.45;56.29
45247;BME280;31529;51.158;7.354;2023-06-19T01:55:45;97384.78;;;23.45;56.49
45247;BME280;31529;51.158;7.354;2023-06-19T01:56:16;97391.78;;;23.46;56.31
45247;BME280;31529;51.158;7.354;2023-06-19T01:56:47;97386.34;;;23.46;56.43
45247;BME280;31529;51.158;7.354;2023-06-19T01:57:18;97388.69;;;23.47;56.08
45247;BME280;31529;51.158;7.354;2023-06-19T01:57:50;97388.69;;;23.47;56.17
45247;BME280;31529;51.158;7.354;2023-06-19T01:58:21;97389.47;;;23.48;56.33
45247;BME280;31529;51.158;7.354;2023-06-19T01:58:52;97390.25;;;23.48;56.02
45247;BME280;31529;51.158;7.354;2023-06-19T01:59:25;97392.59;;;23.50;56.11
45247;BME280;31529;51.158;7.354;2023-06-19T01:59:56;97396.09;;;23.50;55.92
45247;BME280;31529;51.158;7.354;2023-06-19T02:00:27;97390.25;;;23.52;55.78
45247;BME280;31529;51.158;7.354;2023-06-19T02:00:58;97382.88;;;23.52;55.35
45247;BME280;31529;51.158;7.354;2023-06-19T02:01:29;97387.16;;;23.53;55.22
45247;BME280;31529;51.158;7.354;2023-06-19T02:02:00;97388.72;;;23.54;55.26
45247;BME280;31529;51.158;7.354;2023-06-19T02:02:31;97392.22;;;23.55;55.62
45247;BME280;31529;51.158;7.354;2023-06-19T02:03:03;97384.81;;;23.55;55.26
45247;BME280;31529;51.158;7.354;2023-06-19T02:03:35;97391.03;;;23.56;54.93
45247;BME280;31529;51.158;7.354;2023-06-19T02:04:06;97387.16;;;23.57;55.05
45247;BME280;31529;51.158;7.354;2023-06-19T02:04:37;97392.25;;;23.58;55.16
45247;BME280;31529;51.158;7.354;2023-06-19T02:05:08;97387.56;;;23.59;54.18
45247;BME280;31529;51.158;7.354;2023-06-19T02:05:40;97387.97;;;23.61;53.96
45247;BME280;31529;51.158;7.354;2023-06-19T02:06:10;97379.78;;;23.61;53.82
45247;BME280;31529;51.158;7.354;2023-06-19T02:06:42;97387.59;;;23.63;53.82
45247;BME280;31529;51.158;7.354;2023-06-19T02:07:13;97384.09;;;23.62;53.89
45247;BME280;31529;51.158;7.354;2023-06-19T02:07:44;97387.22;;;23.64;53.30
45247;BME280;31529;51.158;7.354;2023-06-19T02:08:15;97388.75;;;23.65;53.05
45247;BME280;31529;51.158;7.354;2023-06-19T02:08:47;97389.56;;;23.66;52.94
45247;BME280;31529;51.158;7.354;2023-06-19T02:09:18;97390.31;;;23.66;53.23
45247;BME280;31529;51.158;7.354;2023-06-19T02:09:50;97386.41;;;23.67;53.36
45247;BME280;31529;51.158;7.354;2023-06-19T02:10:21;97385.66;;;23.67;53.40
45247;BME280;31529;51.158;7.354;2023-06-19T02:10:52;97389.94;;;23.68;53.62
45247;BME280;31529;51.158;7.354;2023-06-19T02:11:23;97393.44;;;23.68;53.26
45247;BME280;31529;51.158;7.354;2023-06-19T02:11:54;97265.53;;;22.84;53.36
45247;BME280;31529;51.158;7.354;2023-06-19T02:12:25;97389.53;;;23.69;53.19
45247;BME280;31529;51.158;7.354;2023-06-19T02:12:57;97393.06;;;23.70;52.85
45247;BME280;31529;51.158;7.354;2023-06-19T02:13:28;97395.78;;;23.70;52.25
45247;BME280;31529;51.158;7.354;2023-06-19T02:13:59;97396.56;;;23.70;52.38
45247;BME280;31529;51.158;7.354;2023-06-19T02:14:30;97396.56;;;23.70;52.42
45247;BME280;31529;51.158;7.354;2023-06-19T02:15:01;97396.56;;;23.70;52.25
45247;BME280;31529;51.158;7.354;2023-06-19T02:15:32;97400.44;;;23.69;52.25
45247;BME280;31529;51.158;7.354;2023-06-19T02:16:04;97396.56;;;23.70;52.43
45247;BME280;31529;51.158;7.354;2023-06-19T02:16:35;97400.03;;;23.67;52.36
45247;BME280;31529;51.158;7.354;2023-06-19T02:17:06;97395.78;;;23.66;52.69
45247;BME280;31529;51.158;7.354;2023-06-19T02:17:37;97400.44;;;23.66;52.64
45247;BME280;31529;51.158;7.354;2023-06-19T02:18:08;97398.09;;;23.64;52.40
45247;BME280;31529;51.158;7.354;2023-06-19T02:18:39;97397.72;;;23.62;52.38
45247;BME280;31529;51.158;7.354;2023-06-19T02:19:11;97394.97;;;23.62;52.55
45247;BME280;31529;51.158;7.354;2023-06-19T02:19:42;97398.84;;;23.61;52.69
45247;BME280;31529;51.158;7.354;2023-06-19T02:20:13;97400.03;;;23.60;52.69
45247;BME280;31529;51.158;7.354;2023-06-19T02:20:44;97400.03;;;23.60;52.50
45247;BME280;31529;51.158;7.354;2023-06-19T02:21:15;97398.47;;;23.59;52.64
45247;BME280;31529;51.158;7.354;2023-06-19T02:21:46;97341.47;;;23.14;52.21
45247;BME280;31529;51.158;7.354;2023-06-19T02:22:18;97402.34;;;23.58;52.44
45247;BME280;31529;51.158;7.354;2023-06-19T02:22:49;97404.28;;;23.57;52.85
45247;BME280;31529;51.158;7.354;2023-06-19T02:23:21;97414.41;;;23.57;52.58
45247;BME280;31529;51.158;7.354;2023-06-19T02:23:52;97404.66;;;23.56;52.74
45247;BME280;31529;51.158;7.354;2023-06-19T02:24:24;97413.63;;;23.56;53.00
45247;BME280;31529;51.158;7.354;2023-06-19T02:24:55;97410.09;;;23.56;53.16
45247;BME280;31529;51.158;7.354;2023-06-19T02:25:26;97417.50;;;23.55;52.98
45247;BME280;31529;51.158;7.354;2023-06-19T02:25:57;97412.84;;;23.52;53.15
45247;BME280;31529;51.158;7.354;2023-06-19T02:26:28;97421.78;;;23.53;53.14
45247;BME280;31529;51.158;7.354;2023-06-19T02:27:00;97412.84;;;23.52;53.26
45247;BME280;31529;51.158;7.354;2023-06-19T02:27:33;97417.50;;;23.52;52.86
45247;BME280;31529;51.158;7.354;2023-06-19T02:28:04;97425.25;;;23.50;53.40
45247;BME280;31529;51.158;7.354;2023-06-19T02:28:35;97419.81;;;23.50;52.85
45247;BME280;31529;51.158;7.354;2023-06-19T02:29:06;97423.72;;;23.49;53.01
45247;BME280;31529;51.158;7.354;2023-06-19T02:29:37;97420.19;;;23.48;53.19
45247;BME280;31529;51.158;7.354;2023-06-19T02:30:08;97421.38;;;23.47;53.33
45247;BME280;31529;51.158;7.354;2023-06-19T02:30:40;97417.88;;;23.47;53.52
45247;BME280;31529;51.158;7.354;2023-06-19T02:31:11;97418.25;;;23.45;53.31
45247;BME280;31529;51.158;7.354;2023-06-19T02:31:42;97425.63;;;23.45;53.52
45247;BME280;31529;51.158;7.354;2023-06-19T02:32:13;97422.88;;;23.45;53.60
45247;BME280;31529;51.158;7.354;2023-06-19T02:32:44;97422.13;;;23.44;53.53
45247;BME280;31529;51.158;7.354;2023-06-19T02:33:15;97420.56;;;23.43;53.48
45247;BME280;31529;51.158;7.354;2023-06-19T02:33:46;97420.94;;;23.42;53.66
45247;BME280;31529;51.158;7.354;2023-06-19T02:34:17;97427.53;;;23.41;53.66
45247;BME280;31529;51.158;7.354;2023-06-19T02:34:48;97427.53;;;23.41;53.76
45247;BME280;31529;51.158;7.354;2023-06-19T02:35:19;97423.28;;;23.39;54.12
45247;BME280;31529;51.158;7.354;2023-06-19T02:35:51;97421.69;;;23.38;53.96
45247;BME280;31529;51.158;7.354;2023-06-19T02:36:22;97428.72;;;23.39;53.90
45247;BME280;31529;51.158;7.354;2023-06-19T02:36:53;97428.31;;;23.37;53.77
45247;BME280;31529;51.158;7.354;2023-06-19T02:37:24;97432.19;;;23.36;53.66
45247;BME280;31529;51.158;7.354;2023-06-19T02:37:55;97432.19;;;23.36;53.79
45247;BME280;31529;51.158;7.354;2023-06-19T02:38:26;97431.41;;;23.36;54.08
45247;BME280;31529;51.158;7.354;2023-06-19T02:39:00;97429.84;;;23.35;54.31
45247;BME280;31529;51.158;7.354;2023-06-19T02:39:31;97425.22;;;23.35;54.12
45247;BME280;31529;51.158;7.354;2023-06-19T02:40:03;97437.25;;;23.34;54.20
45247;BME280;31529;51.158;7.354;2023-06-19T02:40:35;97435.28;;;23.31;54.44
45247;BME280;31529;51.158;7.354;2023-06-19T02:41:06;97431.00;;;23.30;54.55
45247;BME280;31529;51.158;7.354;2023-06-19T02:41:37;97432.16;;;23.29;54.42
45247;BME280;31529;51.158;7.354;2023-06-19T02:42:09;97438.00;;;23.28;54.46
45247;BME280;31529;51.158;7.354;2023-06-19T02:42:40;97436.41;;;23.27;54.57
45247;BME280;31529;51.158;7.354;2023-06-19T02:43:11;97434.06;;;23.25;54.60
45247;BME280;31529;51.158;7.354;2023-06-19T02:43:42;97435.25;;;23.24;54.68
45247;BME280;31529;51.158;7.354;2023-06-19T02:44:14;97438.34;;;23.23;54.75
45247;BME280;31529;51.158;7.354;2023-06-19T02:44:45;97441.84;;;23.23;54.59
45247;BME280;31529;51.158;7.354;2023-06-19T02:45:16;97445.31;;;23.20;54.77
45247;BME280;31529;51.158;7.354;2023-06-19T02:45:47;97441.03;;;23.19;54.86
45247;BME280;31529;51.158;7.354;2023-06-19T02:46:19;97449.22;;;23.19;54.74
45247;BME280;31529;51.158;7.354;2023-06-19T02:46:50;97448.44;;;23.18;54.89
45247;BME280;31529;51.158;7.354;2023-06-19T02:47:21;97439.88;;;23.16;54.80
45247;BME280;31529;51.158;7.354;2023-06-19T02:47:52;97445.69;;;23.15;54.74
45247;BME280;31529;51.158;7.354;2023-06-19T02:48:24;97383.13;;;22.67;54.87
45247;BME280;31529;51.158;7.354;2023-06-19T02:48:55;97451.50;;;23.13;54.60
45247;BME280;31529;51.158;7.354;2023-06-19T02:49:26;97451.09;;;23.11;54.85
45247;BME280;31529;51.158;7.354;2023-06-19T02:49:57;97451.09;;;23.11;54.76
45247;BME280;31529;51.158;7.354;2023-06-19T02:50:32;97462.38;;;23.10;54.88
45247;BME280;31529;51.158;7.354;2023-06-19T02:51:04;97449.94;;;23.09;54.86
45247;BME280;31529;51.158;7.354;2023-06-19T02:51:35;97457.28;;;23.08;54.76